sensor_id;sensor_type;location;lat;lon;timestamp;pressure;altitude;pressure_sealevel;temperature;humidity
24825;BME280;12910;57.690;11.974;2023-02-04T00:00:09;102248.25;;;-2.12;100.00
24825;BME280;12910;57.690;11.974;2023-02-04T00:02:35;102253.84;;;-2.06;100.00
24825;BME280;12910;57.690;11.974;2023-02-04T00:05:02;102248.25;;;-2.12;100.00
24825;BME280;12910;57.690;11.974;2023-02-04T00:07:28;102264.50;;;-2.09;100.00
24825;BME280;12910;57.690;11.974;2023-02-04T00:09:53;102267.91;;;-2.08;100.00
24825;BME280;12910;57.690;11.974;2023-02-04T00:12:19;102273.94;;;-2.06;100.00
24825;BME280;12910;57.690;11.974;2023-02-04T00:14:44;102284.59;;;-2.00;100.00
24825;BME280;12910;57.690;11.974;2023-02-04T00:17:09;102302.88;;;-1.92;100.00
24825;BME280;12910;57.690;11.974;2023-02-04T00:19:37;102295.75;;;-1.88;100.00
24825;BME280;12910;57.690;11.974;2023-02-04T00:22:03;102299.16;;;-1.78;100.00
24825;BME280;12910;57.690;11.974;2023-02-04T00:24:29;102298.41;;;-1.77;100.00
24825;BME280;12910;57.690;11.974;2023-02-04T00:26:55;102298.41;;;-1.77;100.00
24825;BME280;12910;57.690;11.974;2023-02-04T00:29:20;102301.06;;;-1.76;100.00
24825;BME280;12910;57.690;11.974;2023-02-04T00:31:46;102305.94;;;-1.77;100.00
24825;BME280;12910;57.690;11.974;2023-02-04T00:34:11;102301.94;;;-1.75;100.00
24825;BME280;12910;57.690;11.974;2023-02-04T00:36:37;102293.09;;;-1.80;100.00
24825;BME280;12910;57.690;11.974;2023-02-04T00:39:02;102288.38;;;-1.86;100.00
24825;BME280;12910;57.690;11.974;2023-02-04T00:41:28;102294.03;;;-1.89;100.00
24825;BME280;12910;57.690;11.974;2023-02-04T00:43:53;102295.19;;;-1.85;100.00
24825;BME280;12910;57.690;11.974;2023-02-04T00:46:18;102311.00;;;-1.86;100.00
24825;BME280;12910;57.690;11.974;2023-02-04T00:48:44;102318.28;;;-1.98;100.00
24825;BME280;12910;57.690;11.974;2023-02-04T00:51:09;102320.31;;;-1.94;100.00
24825;BME280;12910;57.690;11.974;2023-02-04T00:53:34;102335.41;;;-1.94;100.00
24825;BME280;12910;57.690;11.974;2023-02-04T00:56:00;102342.38;;;-2.00;100.00
24825;BME280;12910;57.690;11.974;2023-02-04T00:58:25;102335.56;;;-2.01;100.00
24825;BME280;12910;57.690;11.974;2023-02-04T01:00:50;102335.13;;;-2.06;100.00
24825;BME280;12910;57.690;11.974;2023-02-04T01:03:16;102336.91;;;-2.13;100.00
24825;BME280;12910;57.690;11.974;2023-02-04T01:05:41;102344.75;;;-2.10;100.00
24825;BME280;12910;57.690;11.974;2023-02-04T01:08:07;102346.38;;;-2.20;100.00
24825;BME280;12910;57.690;11.974;2023-02-04T01:10:32;102354.34;;;-2.15;100.00
24825;BME280;12910;57.690;11.974;2023-02-04T01:12:57;102368.53;;;-2.15;100.00
24825;BME280;12910;57.690;11.974;2023-02-04T01:15:23;102353.63;;;-2.31;100.00
24825;BME280;12910;57.690;11.974;2023-02-04T01:17:48;102364.41;;;-2.32;100.00
24825;BME280;12910;57.690;11.974;2023-02-04T01:20:14;102375.19;;;-2.33;100.00
24825;BME280;12910;57.690;11.974;2023-02-04T01:22:39;102386.56;;;-2.28;100.00
24825;BME280;12910;57.690;11.974;2023-02-04T01:25:05;102385.69;;;-2.29;100.00
24825;BME280;12910;57.690;11.974;2023-02-04T01:27:30;102392.31;;;-2.29;100.00
24825;BME280;12910;57.690;11.974;2023-02-04T01:29:56;102390.69;;;-2.38;100.00
24825;BME280;12910;57.690;11.974;2023-02-04T01:32:21;102403.69;;;-2.33;100.00
24825;BME280;12910;57.690;11.974;2023-02-04T01:34:47;102387.72;;;-2.42;100.00
24825;BME280;12910;57.690;11.974;2023-02-04T01:37:12;102398.09;;;-2.39;100.00
24825;BME280;12910;57.690;11.974;2023-02-04T01:39:37;102404.88;;;-2.38;100.00
24825;BME280;12910;57.690;11.974;2023-02-04T01:42:03;102416.09;;;-2.43;100.00
24825;BME280;12910;57.690;11.974;2023-02-04T01:44:29;102421.28;;;-2.42;100.00
24825;BME280;12910;57.690;11.974;2023-02-04T01:46:55;102429.41;;;-2.36;100.00
24825;BME280;12910;57.690;11.974;2023-02-04T01:49:21;102436.75;;;-2.46;100.00
24825;BME280;12910;57.690;11.974;2023-02-04T01:51:46;102422.84;;;-2.60;100.00
24825;BME280;12910;57.690;11.974;2023-02-04T01:54:13;102442.06;;;-2.52;100.00
24825;BME280;12910;57.690;11.974;2023-02-04T01:56:44;102442.34;;;-2.66;100.00
24825;BME280;12910;57.690;11.974;2023-02-04T01:59:15;102444.94;;;-2.73;100.00
24825;BME280;12910;57.690;11.974;2023-02-04T02:01:46;102454.72;;;-2.76;100.00
24825;BME280;12910;57.690;11.974;2023-02-04T02:04:17;102464.88;;;-2.75;100.00
24825;BME280;12910;57.690;11.974;2023-02-04T02:06:48;102453.50;;;-2.80;100.00
24825;BME280;12910;57.690;11.974;2023-02-04T02:09:16;102469.63;;;-2.69;100.00
24825;BME280;12910;57.690;11.974;2023-02-04T02:11:42;102472.16;;;-2.69;100.00
24825;BME280;12910;57.690;11.974;2023-02-04T02:14:08;102474.78;;;-2.76;100.00
24825;BME280;12910;57.690;11.974;2023-02-04T02:16:33;102476.97;;;-2.79;100.00
24825;BME280;12910;57.690;11.974;2023-02-04T02:18:59;102470.31;;;-2.88;100.00
24825;BME280;12910;57.690;11.974;2023-02-04T02:21:38;102489.06;;;-2.84;100.00
24825;BME280;12910;57.690;11.974;2023-02-04T02:24:31;102497.78;;;-2.80;100.00
24825;BME280;12910;57.690;11.974;2023-02-04T02:27:03;102502.81;;;-2.80;100.00
24825;BME280;12910;57.690;11.974;2023-02-04T02:29:31;102502.19;;;-2.87;100.00
24825;BME280;12910;57.690;11.974;2023-02-04T02:31:57;102506.28;;;-2.96;100.00
24825;BME280;12910;57.690;11.974;2023-02-04T02:34:24;102513.63;;;-2.98;100.00
24825;BME280;12910;57.690;11.974;2023-02-04T02:36:50;102513.63;;;-2.98;100.00
24825;BME280;12910;57.690;11.974;2023-02-04T02:39:15;102531.66;;;-2.93;100.00
24825;BME280;12910;57.690;11.974;2023-02-04T02:41:42;102531.38;;;-2.96;100.00
24825;BME280;12910;57.690;11.974;2023-02-04T02:44:09;102539.03;;;-2.94;100.00
24825;BME280;12910;57.690;11.974;2023-02-04T02:46:35;102543.44;;;-3.01;100.00
24825;BME280;12910;57.690;11.974;2023-02-04T02:49:00;102535.75;;;-3.02;100.00
24825;BME280;12910;57.690;11.974;2023-02-04T02:51:27;102551.56;;;-3.03;100.00
24825;BME280;12910;57.690;11.974;2023-02-04T02:53:52;102549.31;;;-3.09;100.00
24825;BME280;12910;57.690;11.974;2023-02-04T02:56:18;102563.03;;;-3.05;100.00
24825;BME280;12910;57.690;11.974;2023-02-04T02:58:44;102561.13;;;-3.08;100.00
24825;BME280;12910;57.690;11.974;2023-02-04T03:01:10;102581.81;;;-3.02;100.00
24825;BME280;12910;57.690;11.974;2023-02-04T03:03:39;102582.06;;;-3.07;100.00
24825;BME280;12910;57.690;11.974;2023-02-04T03:06:18;102597.44;;;-3.04;100.00
24825;BME280;12910;57.690;11.974;2023-02-04T03:08:45;102601.06;;;-3.09;100.00
24825;BME280;12910;57.690;11.974;2023-02-04T03:11:12;102605.75;;;-3.13;100.00
24825;BME280;12910;57.690;11.974;2023-02-04T03:13:37;102603.25;;;-3.13;100.00
24825;BME280;12910;57.690;11.974;2023-02-04T03:16:04;102589.28;;;-3.26;100.00
24825;BME280;12910;57.690;11.974;2023-02-04T03:18:30;102598.03;;;-3.23;100.00
24825;BME280;12910;57.690;11.974;2023-02-04T03:20:56;102620.09;;;-3.11;100.00
24825;BME280;12910;57.690;11.974;2023-02-04T03:23:23;102617.19;;;-3.07;100.00
24825;BME280;12910;57.690;11.974;2023-02-04T03:25:48;102620.09;;;-3.11;100.00
24825;BME280;12910;57.690;11.974;2023-02-04T03:28:14;102628.03;;;-3.16;100.00
24825;BME280;12910;57.690;11.974;2023-02-04T03:30:39;102628.03;;;-3.16;100.00
24825;BME280;12910;57.690;11.974;2023-02-04T03:33:05;102626.25;;;-3.17;100.00
24825;BME280;12910;57.690;11.974;2023-02-04T03:35:30;102624.00;;;-3.22;100.00
24825;BME280;12910;57.690;11.974;2023-02-04T03:37:55;102646.22;;;-3.09;100.00
24825;BME280;12910;57.690;11.974;2023-02-04T03:40:21;102644.63;;;-3.09;100.00
24825;BME280;12910;57.690;11.974;2023-02-04T03:42:46;102645.16;;;-3.11;100.00
24825;BME280;12910;57.690;11.974;2023-02-04T03:45:13;102649.31;;;-3.12;100.00
24825;BME280;12910;57.690;11.974;2023-02-04T03:47:38;102659.25;;;-3.21;100.00
24825;BME280;12910;57.690;11.974;2023-02-04T03:50:04;102668.25;;;-3.23;100.00
24825;BME280;12910;57.690;11.974;2023-02-04T03:52:29;102675.34;;;-3.35;100.00
24825;BME280;12910;57.690;11.974;2023-02-04T03:54:55;102671.72;;;-3.30;100.00
24825;BME280;12910;57.690;11.974;2023-02-04T03:57:20;102691.31;;;-3.34;100.00
24825;BME280;12910;57.690;11.974;2023-02-04T03:59:45;102686.44;;;-3.33;100.00
24825;BME280;12910;57.690;11.974;2023-02-04T04:02:11;102679.84;;;-3.32;100.00
24825;BME280;12910;57.690;11.974;2023-02-04T04:04:36;102683.31;;;-3.39;100.00
24825;BME280;12910;57.690;11.974;2023-02-04T04:07:01;102678.44;;;-3.37;100.00
24825;BME280;12910;57.690;11.974;2023-02-04T04:09:27;102691.88;;;-3.37;100.00
24825;BME280;12910;57.690;11.974;2023-02-04T04:11:53;102695.88;;;-3.46;100.00
24825;BME280;12910;57.690;11.974;2023-02-04T04:14:19;102707.88;;;-3.43;100.00
24825;BME280;12910;57.690;11.974;2023-02-04T04:16:44;102717.91;;;-3.43;100.00
24825;BME280;12910;57.690;11.974;2023-02-04T04:19:09;102734.56;;;-3.44;100.00
24825;BME280;12910;57.690;11.974;2023-02-04T04:21:35;102741.34;;;-3.43;100.00
24825;BME280;12910;57.690;11.974;2023-02-04T04:24:00;102744.31;;;-3.54;100.00
24825;BME280;12910;57.690;11.974;2023-02-04T04:26:25;102749.06;;;-3.88;100.00
24825;BME280;12910;57.690;11.974;2023-02-04T04:28:51;102754.84;;;-3.96;100.00
24825;BME280;12910;57.690;11.974;2023-02-04T04:31:16;102762.44;;;-4.03;100.00
24825;BME280;12910;57.690;11.974;2023-02-04T04:33:41;102759.56;;;-3.99;100.00
24825;BME280;12910;57.690;11.974;2023-02-04T04:36:07;102778.84;;;-3.98;100.00
24825;BME280;12910;57.690;11.974;2023-02-04T04:38:32;102777.34;;;-3.89;100.00
24825;BME280;12910;57.690;11.974;2023-02-04T04:40:58;102776.59;;;-4.04;100.00
24825;BME280;12910;57.690;11.974;2023-02-04T04:43:23;102778.03;;;-4.13;100.00
24825;BME280;12910;57.690;11.974;2023-02-04T04:45:49;102790.03;;;-4.11;100.00
24825;BME280;12910;57.690;11.974;2023-02-04T04:48:14;102799.53;;;-4.15;100.00
24825;BME280;12910;57.690;11.974;2023-02-04T04:50:40;102799.78;;;-4.28;100.00
24825;BME280;12910;57.690;11.974;2023-02-04T04:53:05;102801.22;;;-4.30;100.00
24825;BME280;12910;57.690;11.974;2023-02-04T04:55:36;102806.16;;;-4.16;100.00
24825;BME280;12910;57.690;11.974;2023-02-04T04:58:01;102812.44;;;-4.19;100.00
24825;BME280;12910;57.690;11.974;2023-02-04T05:00:27;102813.53;;;-4.25;100.00
24825;BME280;12910;57.690;11.974;2023-02-04T05:02:52;102813.19;;;-4.28;100.00
24825;BME280;12910;57.690;11.974;2023-02-04T05:05:17;102809.81;;;-4.28;100.00
24825;BME280;12910;57.690;11.974;2023-02-04T05:07:43;102808.22;;;-4.35;100.00
24825;BME280;12910;57.690;11.974;2023-02-04T05:10:08;102804.09;;;-4.34;100.00
24825;BME280;12910;57.690;11.974;2023-02-04T05:12:34;102819.47;;;-4.31;100.00
24825;BME280;12910;57.690;11.974;2023-02-04T05:14:59;102810.53;;;-4.29;100.00
24825;BME280;12910;57.690;11.974;2023-02-04T05:17:24;102831.19;;;-4.16;100.00
24825;BME280;12910;57.690;11.974;2023-02-04T05:19:50;102833.84;;;-4.07;100.00
24825;BME280;12910;57.690;11.974;2023-02-04T05:22:15;102814.88;;;-4.05;100.00
24825;BME280;12910;57.690;11.974;2023-02-04T05:24:40;102822.19;;;-3.99;100.00
24825;BME280;12910;57.690;11.974;2023-02-04T05:27:06;102830.00;;;-3.96;100.00
24825;BME280;12910;57.690;11.974;2023-02-04T05:29:31;102836.44;;;-3.98;100.00
24825;BME280;12910;57.690;11.974;2023-02-04T05:31:56;102829.00;;;-4.05;100.00
24825;BME280;12910;57.690;11.974;2023-02-04T05:34:22;102833.63;;;-4.01;100.00
24825;BME280;12910;57.690;11.974;2023-02-04T05:36:47;102827.84;;;-3.93;100.00
24825;BME280;12910;57.690;11.974;2023-02-04T05:39:13;102830.72;;;-3.90;100.00
24825;BME280;12910;57.690;11.974;2023-02-04T05:41:38;102827.34;;;-3.98;100.00
24825;BME280;12910;57.690;11.974;2023-02-04T05:44:04;102824.34;;;-4.02;100.00
24825;BME280;12910;57.690;11.974;2023-02-04T05:46:29;102841.81;;;-3.95;100.00
24825;BME280;12910;57.690;11.974;2023-02-04T05:48:54;102833.22;;;-3.97;100.00
24825;BME280;12910;57.690;11.974;2023-02-04T05:51:20;102852.59;;;-4.03;100.00
24825;BME280;12910;57.690;11.974;2023-02-04T05:53:45;102856.94;;;-4.10;100.00
24825;BME280;12910;57.690;11.974;2023-02-04T05:56:10;102856.06;;;-4.17;100.00
24825;BME280;12910;57.690;11.974;2023-02-04T05:58:36;102855.34;;;-4.16;100.00
24825;BME280;12910;57.690;11.974;2023-02-04T06:01:02;102857.81;;;-4.09;100.00
24825;BME280;12910;57.690;11.974;2023-02-04T06:03:28;102867.84;;;-4.09;100.00
24825;BME280;12910;57.690;11.974;2023-02-04T06:05:54;102869.09;;;-4.13;100.00
24825;BME280;12910;57.690;11.974;2023-02-04T06:08:20;102885.22;;;-4.11;100.00
24825;BME280;12910;57.690;11.974;2023-02-04T06:10:45;102875.31;;;-4.02;100.00
24825;BME280;12910;57.690;11.974;2023-02-04T06:13:10;102866.19;;;-4.01;100.00
24825;BME280;12910;57.690;11.974;2023-02-04T06:15:36;102881.22;;;-4.01;100.00
24825;BME280;12910;57.690;11.974;2023-02-04T06:18:01;102884.50;;;-4.17;100.00
24825;BME280;12910;57.690;11.974;2023-02-04T06:20:27;102897.00;;;-4.10;100.00
24825;BME280;12910;57.690;11.974;2023-02-04T06:22:52;102892.72;;;-4.18;100.00
24825;BME280;12910;57.690;11.974;2023-02-04T06:25:19;102911.69;;;-4.13;100.00
24825;BME280;12910;57.690;11.974;2023-02-04T06:27:44;102902.03;;;-4.10;100.00
24825;BME280;12910;57.690;11.974;2023-02-04T06:30:10;102916.84;;;-4.04;100.00
24825;BME280;12910;57.690;11.974;2023-02-04T06:32:36;102919.16;;;-4.05;100.00
24825;BME280;12910;57.690;11.974;2023-02-04T06:35:01;102913.59;;;-4.03;100.00
24825;BME280;12910;57.690;11.974;2023-02-04T06:37:26;102914.16;;;-4.05;100.00
24825;BME280;12910;57.690;11.974;2023-02-04T06:39:52;102921.16;;;-4.10;100.00
24825;BME280;12910;57.690;11.974;2023-02-04T06:42:19;102943.72;;;-4.17;100.00
24825;BME280;12910;57.690;11.974;2023-02-04T06:44:44;102929.97;;;-4.35;100.00
24825;BME280;12910;57.690;11.974;2023-02-04T06:47:09;102936.78;;;-4.34;100.00
24825;BME280;12910;57.690;11.974;2023-02-04T06:49:35;102936.13;;;-4.48;100.00
24825;BME280;12910;57.690;11.974;2023-02-04T06:52:00;102950.72;;;-4.36;100.00
24825;BME280;12910;57.690;11.974;2023-02-04T06:54:25;102955.38;;;-4.32;100.00
24825;BME280;12910;57.690;11.974;2023-02-04T06:56:51;102947.53;;;-4.28;100.00
24825;BME280;12910;57.690;11.974;2023-02-04T06:59:16;102948.75;;;-4.32;100.00
24825;BME280;12910;57.690;11.974;2023-02-04T07:01:41;102960.38;;;-4.25;100.00
24825;BME280;12910;57.690;11.974;2023-02-04T07:04:07;102961.28;;;-4.25;100.00
24825;BME280;12910;57.690;11.974;2023-02-04T07:06:32;102952.53;;;-4.28;100.00
24825;BME280;12910;57.690;11.974;2023-02-04T07:08:57;102960.38;;;-4.25;100.00
24825;BME280;12910;57.690;11.974;2023-02-04T07:11:23;102974.16;;;-4.29;100.00
24825;BME280;12910;57.690;11.974;2023-02-04T07:13:48;102980.44;;;-4.47;100.00
24825;BME280;12910;57.690;11.974;2023-02-04T07:16:13;102967.06;;;-4.62;100.00
24825;BME280;12910;57.690;11.974;2023-02-04T07:18:39;102970.09;;;-4.50;100.00
24825;BME280;12910;57.690;11.974;2023-02-04T07:21:04;102977.56;;;-4.43;100.00
24825;BME280;12910;57.690;11.974;2023-02-04T07:23:30;102990.97;;;-4.35;100.00
24825;BME280;12910;57.690;11.974;2023-02-04T07:25:55;102983.28;;;-4.44;100.00
24825;BME280;12910;57.690;11.974;2023-02-04T07:28:23;102991.69;;;-4.36;100.00
24825;BME280;12910;57.690;11.974;2023-02-04T07:30:49;102985.78;;;-4.29;100.00
24825;BME280;12910;57.690;11.974;2023-02-04T07:33:14;102996.53;;;-4.30;100.00
24825;BME280;12910;57.690;11.974;2023-02-04T07:35:40;103011.19;;;-4.33;100.00
24825;BME280;12910;57.690;11.974;2023-02-04T07:38:05;102989.53;;;-4.40;100.00
24825;BME280;12910;57.690;11.974;2023-02-04T07:40:31;103000.63;;;-4.38;100.00
24825;BME280;12910;57.690;11.974;2023-02-04T07:42:56;103002.25;;;-4.31;100.00
24825;BME280;12910;57.690;11.974;2023-02-04T07:45:22;103006.69;;;-4.29;100.00
24825;BME280;12910;57.690;11.974;2023-02-04T07:47:47;103005.97;;;-4.28;100.00
24825;BME280;12910;57.690;11.974;2023-02-04T07:50:12;103010.25;;;-4.19;100.00
24825;BME280;12910;57.690;11.974;2023-02-04T07:52:38;103015.06;;;-4.14;100.00
24825;BME280;12910;57.690;11.974;2023-02-04T07:55:04;103011.88;;;-4.20;100.00
24825;BME280;12910;57.690;11.974;2023-02-04T07:57:30;103007.59;;;-4.21;100.00
24825;BME280;12910;57.690;11.974;2023-02-04T07:59:55;103016.69;;;-4.14;100.00
24825;BME280;12910;57.690;11.974;2023-02-04T08:02:21;103007.41;;;-4.15;100.00
24825;BME280;12910;57.690;11.974;2023-02-04T08:04:46;103023.31;;;-4.15;100.00
24825;BME280;12910;57.690;11.974;2023-02-04T08:07:12;103016.16;;;-4.12;100.00
24825;BME280;12910;57.690;11.974;2023-02-04T08:09:37;103025.06;;;-4.07;100.00
24825;BME280;12910;57.690;11.974;2023-02-04T08:12:02;103039.38;;;-4.05;100.00
24825;BME280;12910;57.690;11.974;2023-02-04T08:14:28;103009.34;;;-4.13;100.00
24825;BME280;12910;57.690;11.974;2023-02-04T08:16:53;103024.00;;;-4.09;100.00
24825;BME280;12910;57.690;11.974;2023-02-04T08:19:19;103013.66;;;-4.19;100.00
24825;BME280;12910;57.690;11.974;2023-02-04T08:21:45;103000.81;;;-4.29;100.00
24825;BME280;12910;57.690;11.974;2023-02-04T08:24:11;103039.03;;;-4.09;100.00
24825;BME280;12910;57.690;11.974;2023-02-04T08:26:38;103037.78;;;-4.05;100.00
24825;BME280;12910;57.690;11.974;2023-02-04T08:29:04;103051.19;;;-4.04;100.00
24825;BME280;12910;57.690;11.974;2023-02-04T08:31:29;103048.31;;;-4.08;100.00
24825;BME280;12910;57.690;11.974;2023-02-04T08:33:54;103056.03;;;-3.99;100.00
24825;BME280;12910;57.690;11.974;2023-02-04T08:36:20;103053.69;;;-3.97;100.00
24825;BME280;12910;57.690;11.974;2023-02-04T08:38:45;103059.44;;;-4.05;100.00
24825;BME280;12910;57.690;11.974;2023-02-04T08:41:10;103066.03;;;-4.13;100.00
24825;BME280;12910;57.690;11.974;2023-02-04T08:43:36;103064.81;;;-4.10;100.00
24825;BME280;12910;57.690;11.974;2023-02-04T08:46:01;103068.38;;;-4.15;100.00
24825;BME280;12910;57.690;11.974;2023-02-04T08:48:27;103066.97;;;-4.20;100.00
24825;BME280;12910;57.690;11.974;2023-02-04T08:50:52;103064.81;;;-4.17;100.00
24825;BME280;12910;57.690;11.974;2023-02-04T08:53:17;103081.97;;;-4.05;100.00
24825;BME280;12910;57.690;11.974;2023-02-04T08:55:43;103081.44;;;-4.10;100.00
24825;BME280;12910;57.690;11.974;2023-02-04T08:58:08;103080.91;;;-4.22;100.00
24825;BME280;12910;57.690;11.974;2023-02-04T09:00:34;103104.88;;;-4.17;100.00
24825;BME280;12910;57.690;11.974;2023-02-04T09:02:59;103101.66;;;-4.16;100.00
24825;BME280;12910;57.690;11.974;2023-02-04T09:05:24;103101.50;;;-4.17;100.00
24825;BME280;12910;57.690;11.974;2023-02-04T09:07:50;103112.03;;;-4.13;100.00
24825;BME280;12910;57.690;11.974;2023-02-04T09:10:15;103111.34;;;-4.19;100.00
24825;BME280;12910;57.690;11.974;2023-02-04T09:12:40;103107.94;;;-4.19;100.00
24825;BME280;12910;57.690;11.974;2023-02-04T09:15:08;103106.31;;;-4.12;100.00
24825;BME280;12910;57.690;11.974;2023-02-04T09:17:34;103099.50;;;-4.05;100.00
24825;BME280;12910;57.690;11.974;2023-02-04T09:19:59;103097.72;;;-4.07;100.00
24825;BME280;12910;57.690;11.974;2023-02-04T09:22:25;103114.72;;;-4.04;100.00
24825;BME280;12910;57.690;11.974;2023-02-04T09:24:50;103106.66;;;-3.94;100.00
24825;BME280;12910;57.690;11.974;2023-02-04T09:27:16;103103.97;;;-3.88;100.00
24825;BME280;12910;57.690;11.974;2023-02-04T09:29:41;103105.38;;;-3.83;100.00
24825;BME280;12910;57.690;11.974;2023-02-04T09:32:06;103110.19;;;-3.78;100.00
24825;BME280;12910;57.690;11.974;2023-02-04T09:34:32;103119.88;;;-3.73;100.00
24825;BME280;12910;57.690;11.974;2023-02-04T09:36:57;103127.56;;;-3.72;100.00
24825;BME280;12910;57.690;11.974;2023-02-04T09:39:22;103120.22;;;-3.70;100.00
24825;BME280;12910;57.690;11.974;2023-02-04T09:41:49;103130.41;;;-3.62;100.00
24825;BME280;12910;57.690;11.974;2023-02-04T09:44:18;103124.13;;;-3.65;100.00
24825;BME280;12910;57.690;11.974;2023-02-04T09:46:51;103124.13;;;-3.65;100.00
24825;BME280;12910;57.690;11.974;2023-02-04T09:49:16;103126.28;;;-3.61;100.00
24825;BME280;12910;57.690;11.974;2023-02-04T09:51:42;103125.22;;;-3.63;100.00
24825;BME280;12910;57.690;11.974;2023-02-04T09:54:16;103135.78;;;-3.58;100.00
24825;BME280;12910;57.690;11.974;2023-02-04T09:56:42;103135.06;;;-3.57;100.00
24825;BME280;12910;57.690;11.974;2023-02-04T09:59:16;103136.84;;;-3.64;100.00
24825;BME280;12910;57.690;11.974;2023-02-04T10:01:42;103135.44;;;-3.76;100.00
24825;BME280;12910;57.690;11.974;2023-02-04T10:04:10;103132.75;;;-3.85;100.00
24825;BME280;12910;57.690;11.974;2023-02-04T10:06:37;103141.69;;;-3.80;100.00
24825;BME280;12910;57.690;11.974;2023-02-04T10:09:03;103138.16;;;-3.82;100.00
24825;BME280;12910;57.690;11.974;2023-02-04T10:11:31;103137.44;;;-3.81;100.00
24825;BME280;12910;57.690;11.974;2023-02-04T10:13:58;103143.31;;;-3.73;100.00
24825;BME280;12910;57.690;11.974;2023-02-04T10:16:27;103144.22;;;-3.72;100.00
24825;BME280;12910;57.690;11.974;2023-02-04T10:19:06;103130.97;;;-3.79;100.00
24825;BME280;12910;57.690;11.974;2023-02-04T10:21:33;103133.63;;;-3.63;100.00
24825;BME280;12910;57.690;11.974;2023-02-04T10:24:03;103135.78;;;-3.58;100.00
24825;BME280;12910;57.690;11.974;2023-02-04T10:26:31;103129.69;;;-3.61;100.00
24825;BME280;12910;57.690;11.974;2023-02-04T10:29:18;103127.50;;;-3.50;100.00
24825;BME280;12910;57.690;11.974;2023-02-04T10:31:46;103138.41;;;-3.50;100.00
24825;BME280;12910;57.690;11.974;2023-02-04T10:34:17;103133.78;;;-3.54;100.00
24825;BME280;12910;57.690;11.974;2023-02-04T10:36:47;103131.81;;;-3.49;100.00
24825;BME280;12910;57.690;11.974;2023-02-04T10:39:15;103129.28;;;-3.49;100.00
24825;BME280;12910;57.690;11.974;2023-02-04T10:42:17;103133.75;;;-3.47;100.00
24825;BME280;12910;57.690;11.974;2023-02-04T10:44:46;103124.09;;;-3.51;100.00
24825;BME280;12910;57.690;11.974;2023-02-04T10:47:23;103123.22;;;-3.51;100.00
24825;BME280;12910;57.690;11.974;2023-02-04T10:49:56;103136.44;;;-3.38;100.00
24825;BME280;12910;57.690;11.974;2023-02-04T10:52:32;103141.03;;;-3.26;100.00
24825;BME280;12910;57.690;11.974;2023-02-04T10:54:58;103132.47;;;-3.29;100.00
24825;BME280;12910;57.690;11.974;2023-02-04T10:57:28;103137.28;;;-3.23;100.00
24825;BME280;12910;57.690;11.974;2023-02-04T10:59:56;103137.78;;;-3.18;100.00
24825;BME280;12910;57.690;11.974;2023-02-04T11:02:39;103133.28;;;-3.21;100.00
24825;BME280;12910;57.690;11.974;2023-02-04T11:05:43;103138.31;;;-3.14;100.00
24825;BME280;12910;57.690;11.974;2023-02-04T11:08:02;103152.44;;;-3.14;100.00
24825;BME280;12910;57.690;11.974;2023-02-04T11:10:42;103147.28;;;-3.16;100.00
24825;BME280;12910;57.690;11.974;2023-02-04T11:13:22;103142.56;;;-3.13;100.00
24825;BME280;12910;57.690;11.974;2023-02-04T11:15:49;103161.53;;;-3.00;100.00
24825;BME280;12910;57.690;11.974;2023-02-04T11:20:47;103167.78;;;-2.97;100.00
24825;BME280;12910;57.690;11.974;2023-02-04T11:26:30;103158.66;;;-2.96;100.00
24825;BME280;12910;57.690;11.974;2023-02-04T11:31:26;103166.50;;;-2.86;100.00
24825;BME280;12910;57.690;11.974;2023-02-04T11:34:11;103155.03;;;-2.91;100.00
24825;BME280;12910;57.690;11.974;2023-02-04T11:37:05;103155.00;;;-2.84;100.00
24825;BME280;12910;57.690;11.974;2023-02-04T11:39:41;103158.91;;;-2.78;100.00
24825;BME280;12910;57.690;11.974;2023-02-04T11:42:40;103156.56;;;-2.77;100.00
24825;BME280;12910;57.690;11.974;2023-02-04T11:45:21;103147.09;;;-2.79;100.00
24825;BME280;12910;57.690;11.974;2023-02-04T11:47:50;103147.22;;;-2.71;100.00
24825;BME280;12910;57.690;11.974;2023-02-04T11:50:20;103147.56;;;-2.68;100.00
24825;BME280;12910;57.690;11.974;2023-02-04T11:52:46;103128.94;;;-2.70;100.00
24825;BME280;12910;57.690;11.974;2023-02-04T11:55:11;103135.56;;;-2.70;100.00
24825;BME280;12910;57.690;11.974;2023-02-04T11:57:41;103140.75;;;-2.69;100.00
24825;BME280;12910;57.690;11.974;2023-02-04T12:00:15;103121.56;;;-2.68;100.00
24825;BME280;12910;57.690;11.974;2023-02-04T12:02:45;103125.69;;;-2.69;100.00
24825;BME280;12910;57.690;11.974;2023-02-04T12:05:14;103129.41;;;-2.58;100.00
24825;BME280;12910;57.690;11.974;2023-02-04T12:07:40;103122.59;;;-2.59;100.00
24825;BME280;12910;57.690;11.974;2023-02-04T12:12:42;103139.88;;;-2.46;100.00
24825;BME280;12910;57.690;11.974;2023-02-04T12:15:21;103142.34;;;-2.39;100.00
24825;BME280;12910;57.690;11.974;2023-02-04T12:18:03;103132.63;;;-2.36;100.00
24825;BME280;12910;57.690;11.974;2023-02-04T12:20:29;103141.31;;;-2.17;100.00
24825;BME280;12910;57.690;11.974;2023-02-04T12:22:55;103143.75;;;-2.10;100.00
24825;BME280;12910;57.690;11.974;2023-02-04T12:25:21;103133.03;;;-2.16;100.00
24825;BME280;12910;57.690;11.974;2023-02-04T12:27:46;103122.88;;;-2.25;100.00
24825;BME280;12910;57.690;11.974;2023-02-04T12:30:11;103129.13;;;-2.22;100.00
24825;BME280;12910;57.690;11.974;2023-02-04T12:32:37;103129.06;;;-2.14;100.00
24825;BME280;12910;57.690;11.974;2023-02-04T12:35:02;103124.44;;;-2.18;100.00
24825;BME280;12910;57.690;11.974;2023-02-04T12:37:28;103104.88;;;-2.21;100.00
24825;BME280;12910;57.690;11.974;2023-02-04T12:39:54;103112.88;;;-2.09;100.00